createdAt,value
2022-10-17T00:01:10.580Z,3.70
2022-10-17T00:03:40.243Z,4.10
2022-10-17T00:06:14.169Z,4.30
2022-10-17T00:08:44.207Z,3.70
2022-10-17T00:11:24.498Z,4.30
2022-10-17T00:13:56.335Z,4.30
2022-10-17T00:16:31.138Z,4.00
2022-10-17T00:18:59.330Z,4.30
2022-10-17T00:21:27.389Z,3.70
2022-10-17T00:23:55.844Z,4.40
2022-10-17T00:26:24.054Z,3.70
2022-10-17T00:28:53.323Z,3.90
2022-10-17T00:31:23.511Z,4.20
2022-10-17T00:33:53.252Z,4.10
2022-10-17T00:36:25.499Z,3.70
2022-10-17T00:38:58.763Z,3.70
2022-10-17T00:41:32.115Z,3.90
2022-10-17T00:44:06.189Z,3.40
2022-10-17T00:46:38.298Z,3.80
2022-10-17T00:49:12.713Z,3.80
2022-10-17T00:52:02.017Z,4.10
2022-10-17T00:54:37.412Z,3.10
2022-10-17T00:57:06.201Z,3.10
2022-10-17T00:59:38.235Z,3.60
2022-10-17T01:02:14.814Z,3.20
2022-10-17T01:04:46.905Z,3.70
2022-10-17T01:07:15.179Z,3.20
2022-10-17T01:09:46.333Z,3.80
2022-10-17T01:12:22.387Z,3.90
2022-10-17T01:14:57.630Z,3.60
2022-10-17T01:17:56.184Z,3.20
2022-10-17T01:20:59.179Z,3.50
2022-10-17T01:23:54.641Z,3.20
2022-10-17T01:26:48.483Z,3.20
2022-10-17T01:30:21.248Z,2.80
2022-10-17T01:33:02.012Z,3.10
2022-10-17T01:35:42.827Z,3.10
2022-10-17T01:39:08.111Z,2.90
2022-10-17T01:41:57.368Z,3.40
2022-10-17T01:44:36.383Z,2.90
2022-10-17T01:47:11.243Z,3.30
2022-10-17T01:49:43.644Z,3.30
2022-10-17T01:52:24.076Z,3.00
2022-10-17T01:54:59.751Z,3.10
2022-10-17T01:57:40.031Z,3.00
2022-10-17T02:00:19.099Z,3.00
2022-10-17T02:03:00.450Z,3.10
2022-10-17T02:05:35.661Z,3.60
2022-10-17T02:08:04.588Z,3.00
2022-10-17T02:10:53.262Z,2.90
2022-10-17T02:13:50.380Z,3.60
2022-10-17T02:16:44.973Z,2.70
2022-10-17T02:19:36.872Z,3.30
2022-10-17T02:22:17.769Z,2.70
2022-10-17T02:24:59.776Z,3.10
2022-10-17T02:30:14.507Z,3.10
2022-10-17T02:32:59.035Z,3.00
2022-10-17T02:35:33.445Z,2.70
2022-10-17T02:38:05.092Z,3.20
2022-10-17T02:40:34.926Z,3.20
2022-10-17T02:43:03.190Z,3.20
2022-10-17T02:45:36.904Z,3.20
2022-10-17T02:48:17.900Z,2.90
2022-10-17T02:51:14.335Z,2.90
2022-10-17T02:54:10.677Z,2.50
2022-10-17T02:56:50.732Z,2.60
2022-10-17T02:59:24.427Z,2.00
2022-10-17T03:01:53.534Z,2.00
2022-10-17T03:04:21.630Z,2.00
2022-10-17T03:06:49.751Z,2.90
2022-10-17T03:09:19.159Z,2.00
2022-10-17T03:11:47.118Z,2.00
2022-10-17T03:14:15.187Z,2.40
2022-10-17T03:16:44.017Z,2.10
2022-10-17T03:19:11.936Z,1.90
2022-10-17T03:21:40.122Z,4.10
2022-10-17T03:24:08.743Z,1.90
2022-10-17T03:26:36.941Z,1.60
2022-10-17T03:29:05.306Z,2.00
2022-10-17T03:31:33.652Z,2.30
2022-10-17T03:34:03.647Z,1.70
2022-10-17T03:36:31.601Z,1.90
2022-10-17T03:38:59.572Z,2.00
2022-10-17T03:41:28.056Z,1.80
2022-10-17T03:43:55.955Z,2.00
2022-10-17T03:46:24.229Z,1.80
2022-10-17T03:48:55.056Z,2.10
2022-10-17T03:51:23.075Z,2.70
2022-10-17T03:53:53.988Z,1.60
2022-10-17T03:56:25.379Z,2.20
2022-10-17T03:59:00.299Z,1.80
2022-10-17T04:01:28.825Z,1.80
2022-10-17T04:03:57.647Z,2.00
2022-10-17T04:06:27.528Z,3.00
2022-10-17T04:08:55.624Z,2.30
2022-10-17T04:11:28.459Z,1.80
2022-10-17T04:13:59.756Z,2.10
2022-10-17T04:16:28.190Z,2.40
2022-10-17T04:19:04.813Z,1.40
2022-10-17T04:21:37.881Z,1.90
2022-10-17T04:24:11.808Z,2.00
2022-10-17T04:26:59.859Z,1.70
2022-10-17T04:29:30.048Z,2.00
2022-10-17T04:32:18.172Z,1.70
2022-10-17T04:35:09.434Z,1.70
2022-10-17T04:37:37.623Z,2.70
2022-10-17T04:40:10.810Z,1.70
2022-10-17T04:42:38.773Z,2.00
2022-10-17T04:45:07.616Z,2.30
2022-10-17T04:47:35.912Z,1.70
2022-10-17T04:50:06.176Z,1.70
2022-10-17T04:52:37.612Z,1.70
2022-10-17T04:55:07.076Z,1.70
2022-10-17T04:57:35.808Z,1.80
2022-10-17T05:00:18.160Z,1.70
2022-10-17T05:02:56.771Z,1.50
2022-10-17T05:05:24.659Z,2.00
2022-10-17T05:07:53.820Z,2.20
2022-10-17T05:10:25.563Z,2.20
2022-10-17T05:12:53.975Z,2.50
2022-10-17T05:15:24.181Z,2.40
2022-10-17T05:17:57.670Z,1.90
2022-10-17T05:20:27.192Z,2.00
2022-10-17T05:22:55.176Z,1.50
2022-10-17T05:25:23.233Z,2.10
2022-10-17T05:27:51.326Z,1.50
2022-10-17T05:30:19.558Z,1.50
2022-10-17T05:32:47.861Z,2.10
2022-10-17T05:35:16.393Z,1.50
2022-10-17T05:37:44.323Z,2.20
2022-10-17T05:40:12.515Z,1.80
2022-10-17T05:42:49.659Z,1.90
2022-10-17T05:45:18.220Z,1.70
2022-10-17T05:47:47.531Z,1.30
2022-10-17T05:50:15.648Z,1.50
2022-10-17T05:52:58.421Z,1.50
2022-10-17T05:55:26.379Z,1.50
2022-10-17T05:57:54.564Z,2.40
2022-10-17T06:00:23.161Z,1.20
2022-10-17T06:02:56.088Z,1.80
2022-10-17T06:05:24.975Z,1.50
2022-10-17T06:07:55.990Z,1.60
2022-10-17T06:10:26.389Z,1.50
2022-10-17T06:12:54.764Z,1.70
2022-10-17T06:15:22.645Z,1.80
2022-10-17T06:17:57.049Z,1.60
2022-10-17T06:20:24.944Z,1.70
2022-10-17T06:22:53.443Z,1.80
2022-10-17T06:25:34.706Z,1.70
2022-10-17T06:28:02.924Z,2.20
2022-10-17T06:30:31.348Z,1.40
2022-10-17T06:32:59.254Z,2.00
2022-10-17T06:35:27.152Z,1.60
2022-10-17T06:37:55.001Z,1.70
2022-10-17T06:40:23.809Z,1.60
2022-10-17T06:42:51.924Z,1.90
2022-10-17T06:45:47.828Z,2.40
2022-10-17T06:48:27.295Z,1.40
2022-10-17T06:51:11.399Z,1.40
2022-10-17T06:53:50.791Z,2.10
2022-10-17T06:56:46.773Z,1.90
2022-10-17T06:59:32.459Z,1.40
2022-10-17T07:02:06.511Z,2.00
2022-10-17T07:04:34.658Z,1.60
2022-10-17T07:07:03.392Z,1.90
2022-10-17T07:09:33.180Z,1.50
2022-10-17T07:12:01.084Z,2.00
2022-10-17T07:14:32.188Z,1.10
2022-10-17T07:17:01.705Z,1.40
2022-10-17T07:19:32.684Z,1.60
2022-10-17T07:22:00.662Z,1.60
2022-10-17T07:24:28.742Z,1.50
2022-10-17T07:27:03.609Z,1.40
2022-10-17T07:29:31.667Z,1.60
2022-10-17T07:32:08.695Z,1.50
2022-10-17T07:34:37.952Z,2.10
2022-10-17T07:37:07.478Z,1.90
2022-10-17T07:39:35.847Z,1.90
2022-10-17T07:42:05.184Z,1.90
2022-10-17T07:44:33.750Z,2.20
2022-10-17T07:47:02.159Z,2.10
2022-10-17T07:49:31.062Z,1.90
2022-10-17T07:51:59.051Z,1.70
2022-10-17T07:54:26.937Z,1.60
2022-10-17T07:56:54.769Z,1.80
2022-10-17T07:59:22.616Z,2.00
2022-10-17T08:01:50.489Z,2.40
2022-10-17T08:04:18.443Z,2.40
2022-10-17T08:06:46.294Z,1.80
2022-10-17T08:09:14.186Z,2.10
2022-10-17T08:11:44.118Z,2.40
2022-10-17T08:14:13.899Z,2.00
2022-10-17T08:16:41.757Z,2.20
2022-10-17T08:19:11.529Z,2.00
2022-10-17T08:21:39.505Z,2.40
2022-10-17T08:24:07.389Z,2.50
2022-10-17T08:26:39.189Z,2.20
2022-10-17T08:29:17.088Z,1.90
2022-10-17T08:31:47.852Z,2.10
2022-10-17T08:34:16.908Z,2.60
2022-10-17T08:36:44.765Z,3.60
2022-10-17T08:39:12.695Z,2.70
2022-10-17T08:42:03.576Z,2.60
2022-10-17T08:44:54.548Z,3.30
2022-10-17T08:47:36.070Z,2.40
2022-10-17T08:53:03.120Z,1.80
2022-10-17T08:55:42.804Z,2.80
2022-10-17T08:58:17.271Z,2.50
2022-10-17T09:01:40.647Z,2.00
2022-10-17T09:04:14.454Z,2.30
2022-10-17T09:07:06.237Z,2.10
2022-10-17T09:09:49.504Z,2.00
2022-10-17T09:12:28.453Z,3.10
2022-10-17T09:15:14.475Z,2.00
2022-10-17T09:17:59.922Z,2.50
2022-10-17T09:20:39.451Z,2.30
2022-10-17T09:23:17.360Z,2.00
2022-10-17T09:25:50.674Z,2.20
2022-10-17T09:28:41.535Z,4.40
2022-10-17T09:31:23.462Z,1.90
2022-10-17T09:33:55.428Z,3.70
2022-10-17T09:36:32.917Z,2.10
2022-10-17T09:39:14.875Z,2.40
2022-10-17T09:41:52.223Z,2.40
2022-10-17T09:44:22.098Z,2.70
2022-10-17T09:47:21.403Z,2.50
2022-10-17T09:49:50.311Z,2.30
2022-10-17T09:52:33.501Z,2.20
2022-10-17T09:55:45.451Z,2.20
2022-10-17T09:58:13.375Z,2.40
2022-10-17T10:00:49.287Z,2.50
2022-10-17T10:03:27.057Z,2.20
2022-10-17T10:06:05.079Z,2.60
2022-10-17T10:08:38.050Z,2.00
2022-10-17T10:11:13.490Z,2.90
2022-10-17T10:13:44.043Z,1.70
2022-10-17T10:16:30.367Z,2.00
2022-10-17T10:18:59.466Z,1.80
2022-10-17T10:21:28.872Z,1.70
2022-10-17T10:23:59.719Z,2.00
2022-10-17T10:26:50.467Z,1.70
2022-10-17T10:29:34.827Z,2.10
2022-10-17T10:32:29.134Z,1.70
2022-10-17T10:35:34.564Z,1.70
2022-10-17T10:38:10.390Z,2.20
2022-10-17T10:40:49.533Z,2.10
2022-10-17T10:43:34.722Z,2.70
2022-10-17T10:46:28.412Z,3.00
2022-10-17T10:49:03.328Z,2.00
2022-10-17T10:51:42.596Z,2.30
2022-10-17T10:54:21.372Z,1.80
2022-10-17T10:57:01.255Z,1.70
2022-10-17T10:59:37.582Z,2.50
2022-10-17T11:02:33.595Z,1.90
2022-10-17T11:05:20.829Z,1.80
2022-10-17T11:08:09.298Z,1.80
2022-10-17T11:11:23.987Z,1.80
2022-10-17T11:14:19.911Z,2.30
2022-10-17T11:17:06.406Z,2.30
2022-10-17T11:19:59.473Z,2.20
2022-10-17T11:22:42.259Z,1.50
2022-10-17T11:25:34.452Z,1.90
2022-10-17T11:28:19.877Z,1.60
2022-10-17T11:31:03.382Z,2.10
2022-10-17T11:33:47.171Z,2.00
2022-10-17T11:38:58.886Z,1.60
2022-10-17T11:41:57.518Z,2.00
2022-10-17T11:44:42.272Z,1.60
2022-10-17T11:47:55.251Z,1.70
2022-10-17T11:53:48.869Z,1.50
2022-10-17T11:56:42.968Z,2.00
2022-10-17T11:59:38.847Z,1.70
2022-10-17T12:02:21.772Z,1.60
2022-10-17T12:05:19.027Z,1.60
2022-10-17T12:08:09.730Z,1.70
2022-10-17T12:10:53.788Z,2.00
2022-10-17T12:13:33.598Z,1.60
2022-10-17T12:16:20.053Z,2.20
2022-10-17T12:19:12.191Z,1.50
2022-10-17T12:22:00.494Z,1.90
2022-10-17T12:24:38.945Z,1.30
2022-10-17T12:27:47.708Z,1.40
2022-10-17T12:30:27.022Z,2.00
2022-10-17T12:33:22.665Z,1.90
2022-10-17T12:36:12.391Z,1.40
2022-10-17T12:38:40.287Z,1.50
2022-10-17T12:41:08.434Z,1.50
2022-10-17T12:43:44.970Z,1.50
2022-10-17T12:46:33.771Z,1.60
2022-10-17T12:49:05.067Z,1.30
2022-10-17T12:57:36.093Z,1.50
2022-10-17T13:00:30.160Z,1.50
2022-10-17T13:03:06.957Z,1.20
2022-10-17T13:05:40.340Z,1.10
2022-10-17T13:08:28.148Z,1.60
2022-10-17T13:10:57.645Z,1.10
2022-10-17T13:13:54.207Z,1.40
2022-10-17T13:16:35.924Z,1.10
2022-10-17T13:19:14.997Z,1.30
2022-10-17T13:22:06.940Z,1.30
2022-10-17T13:24:38.878Z,1.30
2022-10-17T13:27:30.955Z,1.40
2022-10-17T13:30:02.012Z,1.40
2022-10-17T13:32:39.698Z,1.60
2022-10-17T13:35:17.219Z,1.20
2022-10-17T13:37:51.577Z,1.40
2022-10-17T13:40:49.721Z,1.00
2022-10-17T13:43:26.313Z,1.70
2022-10-17T13:46:13.707Z,1.80
2022-10-17T13:48:49.803Z,4.00
2022-10-17T13:51:17.707Z,1.40
2022-10-17T13:53:45.651Z,2.20
2022-10-17T13:56:27.905Z,8.50
2022-10-17T13:59:02.154Z,3.50
2022-10-17T14:01:31.380Z,1.60
2022-10-17T14:04:09.253Z,1.60
2022-10-17T14:06:49.266Z,1.50
2022-10-17T14:09:26.919Z,1.70
2022-10-17T14:12:16.587Z,1.50
2022-10-17T14:15:09.745Z,1.80
2022-10-17T14:17:40.085Z,1.30
2022-10-17T14:23:38.759Z,1.50
2022-10-17T14:26:21.427Z,1.80
2022-10-17T14:29:07.426Z,2.70
2022-10-17T14:31:37.241Z,2.40
2022-10-17T14:34:05.785Z,2.10
2022-10-17T14:36:40.760Z,3.10
2022-10-17T14:39:22.045Z,1.30
2022-10-17T14:44:30.662Z,1.50
2022-10-17T14:47:37.962Z,1.60
2022-10-17T14:50:21.751Z,1.60
2022-10-17T14:53:11.394Z,1.80
2022-10-17T14:55:58.286Z,1.90
2022-10-17T14:58:30.224Z,1.30
2022-10-17T15:01:00.991Z,1.90
2022-10-17T15:03:29.758Z,1.50
2022-10-17T15:05:58.425Z,1.30
2022-10-17T15:08:26.393Z,1.50
2022-10-17T15:10:54.366Z,1.70
2022-10-17T15:13:32.152Z,1.40
2022-10-17T15:18:46.138Z,2.10
2022-10-17T15:21:26.432Z,2.80
2022-10-17T15:24:06.166Z,1.80
2022-10-17T15:26:34.991Z,2.00
2022-10-17T15:29:03.696Z,2.90
2022-10-17T15:31:31.851Z,1.70
2022-10-17T15:33:59.755Z,3.70
2022-10-17T15:36:39.113Z,2.10
2022-10-17T15:39:07.664Z,1.60
2022-10-17T15:41:35.634Z,2.30
2022-10-17T15:44:03.732Z,1.30
2022-10-17T15:46:35.473Z,1.40
2022-10-17T15:49:12.403Z,1.50
2022-10-17T15:51:41.201Z,1.40
2022-10-17T15:54:09.433Z,1.20
2022-10-17T15:56:41.238Z,1.30
2022-10-17T15:59:17.967Z,1.60
2022-10-17T16:01:46.064Z,1.30
2022-10-17T16:04:15.638Z,2.60
2022-10-17T16:06:43.610Z,3.10
2022-10-17T16:09:11.484Z,3.20
2022-10-17T16:11:42.962Z,1.40
2022-10-17T16:16:44.813Z,3.10
2022-10-17T16:19:13.013Z,2.10
2022-10-17T16:21:41.959Z,2.90
2022-10-17T16:24:12.223Z,1.90
2022-10-17T16:26:41.119Z,1.60
2022-10-17T16:29:10.130Z,1.80
2022-10-17T16:31:43.483Z,1.80
2022-10-17T16:34:14.081Z,1.60
2022-10-17T16:36:42.927Z,1.50
2022-10-17T16:39:10.847Z,1.70
2022-10-17T16:41:39.604Z,1.10
2022-10-17T16:44:14.528Z,1.40
2022-10-17T16:46:42.393Z,1.10
2022-10-17T16:49:10.768Z,1.50
2022-10-17T16:51:38.544Z,1.50
2022-10-17T16:54:06.459Z,1.70
2022-10-17T16:56:34.468Z,1.40
2022-10-17T16:59:02.523Z,1.40
2022-10-17T17:01:30.628Z,1.60
2022-10-17T17:03:58.879Z,1.70
2022-10-17T17:06:30.609Z,2.10
2022-10-17T17:08:59.052Z,2.00
2022-10-17T17:11:28.655Z,2.20
2022-10-17T17:13:58.750Z,3.20
2022-10-17T17:16:28.010Z,3.10
2022-10-17T17:19:00.092Z,2.80
2022-10-17T17:21:28.224Z,4.00
2022-10-17T17:23:59.265Z,3.90
2022-10-17T17:26:31.220Z,7.60
2022-10-17T17:29:00.788Z,6.90
2022-10-17T17:31:32.417Z,10.50
2022-10-17T17:34:01.253Z,10.90
2022-10-17T17:36:33.942Z,10.80
2022-10-17T17:39:05.959Z,10.30
2022-10-17T17:41:35.062Z,9.80
2022-10-17T17:44:04.570Z,8.30
2022-10-17T17:46:32.991Z,7.50
2022-10-17T17:49:01.800Z,6.90
2022-10-17T17:51:29.819Z,13.40
2022-10-17T17:53:57.903Z,13.70
2022-10-17T17:56:29.281Z,16.90
2022-10-17T18:01:36.673Z,25.80
2022-10-17T18:04:08.729Z,17.20
2022-10-17T18:06:38.400Z,16.90
2022-10-17T18:09:07.218Z,14.00
2022-10-17T18:11:37.046Z,14.20
2022-10-17T18:14:11.241Z,9.60
2022-10-17T18:16:39.262Z,9.00
2022-10-17T18:19:10.488Z,4.50
2022-10-17T18:24:06.999Z,4.00
2022-10-17T18:26:35.168Z,4.00
2022-10-17T18:29:04.299Z,2.30
2022-10-17T18:31:36.059Z,2.40
2022-10-17T18:34:05.879Z,3.00
2022-10-17T18:36:35.336Z,15.10
2022-10-17T18:39:05.310Z,9.60
2022-10-17T18:41:33.996Z,13.30
2022-10-17T18:44:05.353Z,13.00
2022-10-17T18:46:40.736Z,10.80
2022-10-17T18:49:16.314Z,7.90
2022-10-17T18:51:45.792Z,6.80
2022-10-17T18:54:20.556Z,7.80
2022-10-17T18:56:54.591Z,7.90
2022-10-17T18:59:22.852Z,8.10
2022-10-17T19:01:50.799Z,7.70
2022-10-17T19:04:18.834Z,6.30
2022-10-17T19:06:46.864Z,6.50
2022-10-17T19:09:15.547Z,6.20
2022-10-17T19:11:44.115Z,6.20
2022-10-17T19:14:13.850Z,4.50
2022-10-17T19:16:46.733Z,4.80
2022-10-17T19:19:17.194Z,6.90
2022-10-17T19:21:45.202Z,6.40
2022-10-17T19:24:17.871Z,7.10
2022-10-17T19:26:47.608Z,33.60
2022-10-17T19:29:18.228Z,36.90
2022-10-17T19:31:47.620Z,41.00
2022-10-17T19:34:17.335Z,34.40
2022-10-17T19:36:45.889Z,33.90
2022-10-17T19:39:18.126Z,25.30
2022-10-17T19:41:48.116Z,11.80
2022-10-17T19:44:16.941Z,10.80
2022-10-17T19:46:46.857Z,7.80
2022-10-17T19:49:15.630Z,9.80
2022-10-17T19:51:44.782Z,10.90
2022-10-17T19:54:15.107Z,8.10
2022-10-17T19:56:43.543Z,9.00
2022-10-17T19:59:14.465Z,10.00
2022-10-17T20:01:43.239Z,14.10
2022-10-17T20:04:12.639Z,16.40
2022-10-17T20:06:43.050Z,11.20
2022-10-17T20:09:15.821Z,12.90
2022-10-17T20:11:45.575Z,28.10
2022-10-17T20:14:13.704Z,29.40
2022-10-17T20:16:42.291Z,34.20
2022-10-17T20:19:12.791Z,30.90
2022-10-17T20:21:40.705Z,27.10
2022-10-17T20:24:15.372Z,17.10
2022-10-17T20:26:44.470Z,12.20
2022-10-17T20:29:19.700Z,10.90
2022-10-17T20:31:48.255Z,10.90
2022-10-17T20:34:18.930Z,14.10
2022-10-17T20:36:47.967Z,12.10
2022-10-17T20:39:19.194Z,10.00
2022-10-17T20:44:15.665Z,6.20
2022-10-17T20:46:52.896Z,5.20
2022-10-17T20:49:28.422Z,6.80
2022-10-17T20:51:56.770Z,7.00
2022-10-17T20:54:25.398Z,8.40
2022-10-17T20:56:53.646Z,14.90
2022-10-17T20:59:21.627Z,9.10
2022-10-17T21:01:49.586Z,9.00
2022-10-17T21:07:06.189Z,18.20
2022-10-17T21:09:34.047Z,14.70
2022-10-17T21:12:04.283Z,12.60
2022-10-17T21:14:33.419Z,10.40
2022-10-17T21:17:04.935Z,16.00
2022-10-17T21:19:33.576Z,15.50
2022-10-17T21:22:01.821Z,12.50
2022-10-17T21:24:30.802Z,13.50
2022-10-17T21:26:58.900Z,10.70
2022-10-17T21:29:26.892Z,8.80
2022-10-17T21:31:54.740Z,7.90
2022-10-17T21:34:25.058Z,7.10
2022-10-17T21:36:53.248Z,9.20
2022-10-17T21:39:22.947Z,8.00
2022-10-17T21:41:52.194Z,7.50
2022-10-17T21:44:24.822Z,6.90
2022-10-17T21:46:54.304Z,5.70
2022-10-17T21:49:24.805Z,5.10
2022-10-17T21:51:53.589Z,4.60
2022-10-17T21:54:23.604Z,4.90
2022-10-17T21:56:51.951Z,4.50
2022-10-17T21:59:19.968Z,3.60
2022-10-17T22:01:47.997Z,4.10
2022-10-17T22:04:18.680Z,4.10
2022-10-17T22:06:51.211Z,5.10
2022-10-17T22:09:25.797Z,9.00
2022-10-17T22:11:56.789Z,10.10
2022-10-17T22:14:26.918Z,8.60
2022-10-17T22:16:55.461Z,10.10
2022-10-17T22:19:26.664Z,8.60
2022-10-17T22:21:55.283Z,4.90
2022-10-17T22:24:23.849Z,5.70
2022-10-17T22:26:52.463Z,5.00
2022-10-17T22:29:20.842Z,5.00
2022-10-17T22:31:48.801Z,6.40
2022-10-17T22:34:18.353Z,26.30
2022-10-17T22:36:47.850Z,18.10
2022-10-17T22:39:16.043Z,13.90
2022-10-17T22:41:44.265Z,11.00
2022-10-17T22:44:12.236Z,10.30
2022-10-17T22:46:40.053Z,9.90
2022-10-17T22:49:08.557Z,10.90
2022-10-17T22:51:36.758Z,25.20
2022-10-17T22:54:04.709Z,22.50
2022-10-17T22:56:32.686Z,19.50
2022-10-17T22:59:00.651Z,14.80
2022-10-17T23:01:28.547Z,10.70
2022-10-17T23:03:56.513Z,8.70
2022-10-17T23:06:24.588Z,7.00
2022-10-17T23:08:52.513Z,7.60
2022-10-17T23:11:21.064Z,6.30
2022-10-17T23:13:49.386Z,6.50
2022-10-17T23:16:17.382Z,6.10
2022-10-17T23:18:45.450Z,6.70
2022-10-17T23:21:13.596Z,5.80
2022-10-17T23:23:41.893Z,6.10
2022-10-17T23:26:13.345Z,5.80
2022-10-17T23:31:10.404Z,5.70
2022-10-17T23:33:41.280Z,5.90
2022-10-17T23:36:11.948Z,8.30
2022-10-17T23:38:42.430Z,12.30
2022-10-17T23:41:10.891Z,12.30
2022-10-17T23:43:39.093Z,12.30
2022-10-17T23:46:07.911Z,14.90
2022-10-17T23:48:35.920Z,14.30
2022-10-17T23:51:04.444Z,15.30
2022-10-17T23:53:32.386Z,15.00
2022-10-17T23:56:00.275Z,14.80
2022-10-17T23:58:28.646Z,13.10
